sensor_id;sensor_type;location;lat;lon;timestamp;temperature;humidity
51793;DHT22;37850;53.178;6.376;2024-01-07T00:01:36;-0.20;99.90
51793;DHT22;37850;53.178;6.376;2024-01-07T00:04:01;-0.20;99.90
51793;DHT22;37850;53.178;6.376;2024-01-07T00:06:27;-0.10;99.90
51793;DHT22;37850;53.178;6.376;2024-01-07T00:08:53;-0.30;99.90
51793;DHT22;37850;53.178;6.376;2024-01-07T00:11:18;-0.30;99.90
51793;DHT22;37850;53.178;6.376;2024-01-07T00:13:45;-0.30;99.90
51793;DHT22;37850;53.178;6.376;2024-01-07T00:16:11;-0.30;99.90
51793;DHT22;37850;53.178;6.376;2024-01-07T00:18:36;-0.30;99.90
51793;DHT22;37850;53.178;6.376;2024-01-07T00:21:02;0.10;99.90
51793;DHT22;37850;53.178;6.376;2024-01-07T00:23:28;-0.30;99.90
51793;DHT22;37850;53.178;6.376;2024-01-07T00:25:53;-0.30;99.90
51793;DHT22;37850;53.178;6.376;2024-01-07T00:28:20;-0.30;99.90
51793;DHT22;37850;53.178;6.376;2024-01-07T00:30:46;0.00;99.90
51793;DHT22;37850;53.178;6.376;2024-01-07T00:33:12;-0.30;99.90
51793;DHT22;37850;53.178;6.376;2024-01-07T00:35:37;-0.30;99.90
51793;DHT22;37850;53.178;6.376;2024-01-07T00:38:03;-0.30;99.90
51793;DHT22;37850;53.178;6.376;2024-01-07T00:40:29;-0.30;99.90
51793;DHT22;37850;53.178;6.376;2024-01-07T00:42:54;-0.30;99.90
51793;DHT22;37850;53.178;6.376;2024-01-07T00:45:23;-0.30;99.90
51793;DHT22;37850;53.178;6.376;2024-01-07T00:47:48;-0.30;99.90
51793;DHT22;37850;53.178;6.376;2024-01-07T00:50:14;0.70;99.90
51793;DHT22;37850;53.178;6.376;2024-01-07T00:52:40;0.10;99.90
51793;DHT22;37850;53.178;6.376;2024-01-07T00:55:08;0.00;99.90
51793;DHT22;37850;53.178;6.376;2024-01-07T00:57:33;-0.40;99.90
51793;DHT22;37850;53.178;6.376;2024-01-07T01:00:00;-0.40;99.90
51793;DHT22;37850;53.178;6.376;2024-01-07T01:02:25;-0.40;99.90
51793;DHT22;37850;53.178;6.376;2024-01-07T01:04:51;-0.40;99.90
51793;DHT22;37850;53.178;6.376;2024-01-07T01:07:17;-0.40;99.90
51793;DHT22;37850;53.178;6.376;2024-01-07T01:09:43;-0.40;99.90
51793;DHT22;37850;53.178;6.376;2024-01-07T01:12:08;-0.40;99.90
51793;DHT22;37850;53.178;6.376;2024-01-07T01:14:34;-0.40;99.90
51793;DHT22;37850;53.178;6.376;2024-01-07T01:17:00;-0.40;99.90
51793;DHT22;37850;53.178;6.376;2024-01-07T01:19:25;-0.40;99.90
51793;DHT22;37850;53.178;6.376;2024-01-07T01:21:51;-0.40;99.90
51793;DHT22;37850;53.178;6.376;2024-01-07T01:24:17;-0.40;99.90
51793;DHT22;37850;53.178;6.376;2024-01-07T01:26:42;-0.40;99.90
51793;DHT22;37850;53.178;6.376;2024-01-07T01:29:08;-0.40;99.90
51793;DHT22;37850;53.178;6.376;2024-01-07T01:31:34;-0.40;99.90
51793;DHT22;37850;53.178;6.376;2024-01-07T01:33:59;0.20;99.90
51793;DHT22;37850;53.178;6.376;2024-01-07T01:36:25;-0.40;99.90
51793;DHT22;37850;53.178;6.376;2024-01-07T01:38:52;-0.40;99.90
51793;DHT22;37850;53.178;6.376;2024-01-07T01:41:17;-0.40;99.90
51793;DHT22;37850;53.178;6.376;2024-01-07T01:43:43;-0.40;99.90
51793;DHT22;37850;53.178;6.376;2024-01-07T01:46:09;-0.30;99.90
51793;DHT22;37850;53.178;6.376;2024-01-07T01:48:38;-0.40;99.90
51793;DHT22;37850;53.178;6.376;2024-01-07T01:51:03;0.70;99.90
51793;DHT22;37850;53.178;6.376;2024-01-07T01:53:29;-0.30;99.90
51793;DHT22;37850;53.178;6.376;2024-01-07T01:55:57;-0.40;99.90
51793;DHT22;37850;53.178;6.376;2024-01-07T01:58:25;-0.40;99.90
51793;DHT22;37850;53.178;6.376;2024-01-07T02:00:52;-0.40;99.90
51793;DHT22;37850;53.178;6.376;2024-01-07T02:03:18;-0.40;99.90
51793;DHT22;37850;53.178;6.376;2024-01-07T02:05:44;-0.40;99.90
51793;DHT22;37850;53.178;6.376;2024-01-07T02:08:10;-1.60;99.90
51793;DHT22;37850;53.178;6.376;2024-01-07T02:10:36;-0.40;99.90
51793;DHT22;37850;53.178;6.376;2024-01-07T02:13:03;-0.40;99.90
51793;DHT22;37850;53.178;6.376;2024-01-07T02:15:30;-0.40;99.90
51793;DHT22;37850;53.178;6.376;2024-01-07T02:17:56;-0.40;99.90
51793;DHT22;37850;53.178;6.376;2024-01-07T02:20:22;-0.40;99.90
51793;DHT22;37850;53.178;6.376;2024-01-07T02:22:47;-0.40;99.90
51793;DHT22;37850;53.178;6.376;2024-01-07T02:25:13;-0.20;99.90
51793;DHT22;37850;53.178;6.376;2024-01-07T02:27:39;-0.40;99.90
51793;DHT22;37850;53.178;6.376;2024-01-07T02:30:05;-0.40;99.90
51793;DHT22;37850;53.178;6.376;2024-01-07T02:32:31;-0.50;99.90
51793;DHT22;37850;53.178;6.376;2024-01-07T02:35:00;-0.40;99.90
51793;DHT22;37850;53.178;6.376;2024-01-07T02:37:26;-0.50;99.90
51793;DHT22;37850;53.178;6.376;2024-01-07T02:39:51;0.80;99.90
51793;DHT22;37850;53.178;6.376;2024-01-07T02:42:17;-0.50;99.90
51793;DHT22;37850;53.178;6.376;2024-01-07T02:44:43;-0.50;99.90
51793;DHT22;37850;53.178;6.376;2024-01-07T02:47:09;-0.50;99.90
51793;DHT22;37850;53.178;6.376;2024-01-07T02:49:35;-0.50;99.90
51793;DHT22;37850;53.178;6.376;2024-01-07T02:52:00;-0.50;99.90
51793;DHT22;37850;53.178;6.376;2024-01-07T02:54:26;-0.50;99.90
51793;DHT22;37850;53.178;6.376;2024-01-07T02:56:52;-0.50;99.90
51793;DHT22;37850;53.178;6.376;2024-01-07T02:59:18;-0.50;99.90
51793;DHT22;37850;53.178;6.376;2024-01-07T03:01:43;-0.10;99.90
51793;DHT22;37850;53.178;6.376;2024-01-07T03:04:11;-0.50;99.90
51793;DHT22;37850;53.178;6.376;2024-01-07T03:06:38;0.00;99.90
51793;DHT22;37850;53.178;6.376;2024-01-07T03:09:03;-0.40;99.90
51793;DHT22;37850;53.178;6.376;2024-01-07T03:11:29;-0.50;99.90
51793;DHT22;37850;53.178;6.376;2024-01-07T03:13:55;-0.40;99.90
51793;DHT22;37850;53.178;6.376;2024-01-07T03:16:22;-0.50;99.90
51793;DHT22;37850;53.178;6.376;2024-01-07T03:18:48;-0.40;99.90
51793;DHT22;37850;53.178;6.376;2024-01-07T03:21:22;-0.40;99.90
51793;DHT22;37850;53.178;6.376;2024-01-07T03:23:49;-0.40;99.90
51793;DHT22;37850;53.178;6.376;2024-01-07T03:26:16;-0.40;99.90
51793;DHT22;37850;53.178;6.376;2024-01-07T03:28:42;-0.40;99.90
51793;DHT22;37850;53.178;6.376;2024-01-07T03:31:09;-0.40;99.90
51793;DHT22;37850;53.178;6.376;2024-01-07T03:33:36;-0.40;99.90
51793;DHT22;37850;53.178;6.376;2024-01-07T03:36:07;-0.40;99.90
51793;DHT22;37850;53.178;6.376;2024-01-07T03:38:33;-0.50;99.90
51793;DHT22;37850;53.178;6.376;2024-01-07T03:40:58;-0.40;99.90
51793;DHT22;37850;53.178;6.376;2024-01-07T03:43:24;-0.40;99.90
51793;DHT22;37850;53.178;6.376;2024-01-07T03:45:50;-0.30;99.90
51793;DHT22;37850;53.178;6.376;2024-01-07T03:48:16;-0.40;99.90
51793;DHT22;37850;53.178;6.376;2024-01-07T03:50:42;-0.30;99.90
51793;DHT22;37850;53.178;6.376;2024-01-07T03:53:07;-0.40;99.90
51793;DHT22;37850;53.178;6.376;2024-01-07T03:55:33;-0.40;99.90
51793;DHT22;37850;53.178;6.376;2024-01-07T03:57:58;-0.40;99.90
51793;DHT22;37850;53.178;6.376;2024-01-07T04:00:24;0.10;99.90
51793;DHT22;37850;53.178;6.376;2024-01-07T04:02:52;-0.40;99.90
51793;DHT22;37850;53.178;6.376;2024-01-07T04:05:18;-0.50;99.90
51793;DHT22;37850;53.178;6.376;2024-01-07T04:07:44;-0.40;99.90
51793;DHT22;37850;53.178;6.376;2024-01-07T04:10:09;-0.50;99.90
51793;DHT22;37850;53.178;6.376;2024-01-07T04:12:36;-0.40;99.90
51793;DHT22;37850;53.178;6.376;2024-01-07T04:15:02;-0.40;99.90
51793;DHT22;37850;53.178;6.376;2024-01-07T04:17:29;-0.40;99.90
51793;DHT22;37850;53.178;6.376;2024-01-07T04:19:55;0.20;99.90
51793;DHT22;37850;53.178;6.376;2024-01-07T04:22:21;-0.50;99.90
51793;DHT22;37850;53.178;6.376;2024-01-07T04:24:46;-0.50;99.90
51793;DHT22;37850;53.178;6.376;2024-01-07T04:27:12;-0.40;99.90
51793;DHT22;37850;53.178;6.376;2024-01-07T04:29:38;-0.50;99.90
51793;DHT22;37850;53.178;6.376;2024-01-07T04:32:04;-0.50;99.90
51793;DHT22;37850;53.178;6.376;2024-01-07T04:34:29;-0.50;99.90
51793;DHT22;37850;53.178;6.376;2024-01-07T04:36:55;-0.50;99.90
51793;DHT22;37850;53.178;6.376;2024-01-07T04:39:22;-0.40;99.90
51793;DHT22;37850;53.178;6.376;2024-01-07T04:41:48;-0.50;99.90
51793;DHT22;37850;53.178;6.376;2024-01-07T04:44:14;-0.40;99.90
51793;DHT22;37850;53.178;6.376;2024-01-07T04:46:40;-0.40;99.90
51793;DHT22;37850;53.178;6.376;2024-01-07T04:49:06;-0.40;99.90
51793;DHT22;37850;53.178;6.376;2024-01-07T04:51:33;-0.40;99.90
51793;DHT22;37850;53.178;6.376;2024-01-07T04:53:58;-0.40;99.90
51793;DHT22;37850;53.178;6.376;2024-01-07T04:56:24;0.20;99.90
51793;DHT22;37850;53.178;6.376;2024-01-07T04:58:50;-0.40;99.90
51793;DHT22;37850;53.178;6.376;2024-01-07T05:01:16;-0.40;99.90
51793;DHT22;37850;53.178;6.376;2024-01-07T05:03:42;-0.40;99.90
51793;DHT22;37850;53.178;6.376;2024-01-07T05:06:11;-0.40;99.90
51793;DHT22;37850;53.178;6.376;2024-01-07T05:08:37;-0.40;99.90
51793;DHT22;37850;53.178;6.376;2024-01-07T05:11:04;-0.30;99.90
51793;DHT22;37850;53.178;6.376;2024-01-07T05:13:30;-0.30;99.90
51793;DHT22;37850;53.178;6.376;2024-01-07T05:15:56;-0.50;99.90
51793;DHT22;37850;53.178;6.376;2024-01-07T05:18:23;-0.40;99.90
51793;DHT22;37850;53.178;6.376;2024-01-07T05:20:49;-0.40;99.90
51793;DHT22;37850;53.178;6.376;2024-01-07T05:23:16;0.40;99.90
51793;DHT22;37850;53.178;6.376;2024-01-07T05:25:45;0.00;99.90
51793;DHT22;37850;53.178;6.376;2024-01-07T05:28:13;-0.40;99.90
51793;DHT22;37850;53.178;6.376;2024-01-07T05:30:40;-0.40;99.90
51793;DHT22;37850;53.178;6.376;2024-01-07T05:33:06;-0.40;99.90
51793;DHT22;37850;53.178;6.376;2024-01-07T05:35:32;-0.40;99.90
51793;DHT22;37850;53.178;6.376;2024-01-07T05:37:58;0.00;99.90
51793;DHT22;37850;53.178;6.376;2024-01-07T05:40:24;-0.40;99.90
51793;DHT22;37850;53.178;6.376;2024-01-07T05:42:49;-0.40;99.90
51793;DHT22;37850;53.178;6.376;2024-01-07T05:45:15;-0.40;99.90
51793;DHT22;37850;53.178;6.376;2024-01-07T05:47:41;-0.40;99.90
51793;DHT22;37850;53.178;6.376;2024-01-07T05:50:07;-0.40;99.90
51793;DHT22;37850;53.178;6.376;2024-01-07T05:52:33;-0.40;99.90
51793;DHT22;37850;53.178;6.376;2024-01-07T05:54:59;-0.40;99.90
51793;DHT22;37850;53.178;6.376;2024-01-07T05:57:25;-0.40;99.90
51793;DHT22;37850;53.178;6.376;2024-01-07T05:59:51;-0.40;99.90
51793;DHT22;37850;53.178;6.376;2024-01-07T06:02:19;-0.40;99.90
51793;DHT22;37850;53.178;6.376;2024-01-07T06:04:48;-0.40;99.90
51793;DHT22;37850;53.178;6.376;2024-01-07T06:07:13;-0.40;99.90
51793;DHT22;37850;53.178;6.376;2024-01-07T06:09:39;-0.40;99.90
51793;DHT22;37850;53.178;6.376;2024-01-07T06:12:05;-0.40;99.90
51793;DHT22;37850;53.178;6.376;2024-01-07T06:14:31;-0.40;99.90
51793;DHT22;37850;53.178;6.376;2024-01-07T06:16:57;-0.40;99.90
51793;DHT22;37850;53.178;6.376;2024-01-07T06:19:23;-0.40;99.90
51793;DHT22;37850;53.178;6.376;2024-01-07T06:21:48;-0.40;99.90
51793;DHT22;37850;53.178;6.376;2024-01-07T06:24:14;-0.30;99.90
51793;DHT22;37850;53.178;6.376;2024-01-07T06:26:40;-0.30;99.90
51793;DHT22;37850;53.178;6.376;2024-01-07T06:29:06;-0.30;99.90
51793;DHT22;37850;53.178;6.376;2024-01-07T06:31:32;-0.20;99.90
51793;DHT22;37850;53.178;6.376;2024-01-07T06:33:57;-0.30;99.90
51793;DHT22;37850;53.178;6.376;2024-01-07T06:36:24;0.20;99.90
51793;DHT22;37850;53.178;6.376;2024-01-07T06:38:53;-0.30;99.90
51793;DHT22;37850;53.178;6.376;2024-01-07T06:41:19;-0.30;99.90
51793;DHT22;37850;53.178;6.376;2024-01-07T06:43:45;0.10;99.90
51793;DHT22;37850;53.178;6.376;2024-01-07T06:46:10;-0.30;99.90
51793;DHT22;37850;53.178;6.376;2024-01-07T06:48:36;-0.30;99.90
51793;DHT22;37850;53.178;6.376;2024-01-07T06:51:02;-0.30;99.90
51793;DHT22;37850;53.178;6.376;2024-01-07T06:53:27;-0.30;99.90
51793;DHT22;37850;53.178;6.376;2024-01-07T06:55:53;-0.30;99.90
51793;DHT22;37850;53.178;6.376;2024-01-07T06:58:19;-0.30;99.90
51793;DHT22;37850;53.178;6.376;2024-01-07T07:00:44;-0.30;99.90
51793;DHT22;37850;53.178;6.376;2024-01-07T07:03:10;-0.30;99.90
51793;DHT22;37850;53.178;6.376;2024-01-07T07:05:36;-0.30;99.90
51793;DHT22;37850;53.178;6.376;2024-01-07T07:08:02;-0.30;99.90
51793;DHT22;37850;53.178;6.376;2024-01-07T07:10:28;-0.30;99.90
51793;DHT22;37850;53.178;6.376;2024-01-07T07:12:54;-0.30;99.90
51793;DHT22;37850;53.178;6.376;2024-01-07T07:15:19;-0.30;99.90
51793;DHT22;37850;53.178;6.376;2024-01-07T07:17:45;-0.30;99.90
51793;DHT22;37850;53.178;6.376;2024-01-07T07:20:11;-0.40;99.90
51793;DHT22;37850;53.178;6.376;2024-01-07T07:22:37;-0.40;99.90
51793;DHT22;37850;53.178;6.376;2024-01-07T07:25:03;-0.40;99.90
51793;DHT22;37850;53.178;6.376;2024-01-07T07:27:28;-0.40;99.90
51793;DHT22;37850;53.178;6.376;2024-01-07T07:29:54;-0.40;99.90
51793;DHT22;37850;53.178;6.376;2024-01-07T07:32:20;-0.40;99.90
51793;DHT22;37850;53.178;6.376;2024-01-07T07:34:46;-0.40;99.90
51793;DHT22;37850;53.178;6.376;2024-01-07T07:37:13;-0.40;99.90
51793;DHT22;37850;53.178;6.376;2024-01-07T07:39:38;-0.50;99.90
51793;DHT22;37850;53.178;6.376;2024-01-07T07:42:04;0.10;99.90
51793;DHT22;37850;53.178;6.376;2024-01-07T07:44:30;-0.50;99.90
51793;DHT22;37850;53.178;6.376;2024-01-07T07:46:56;-0.50;99.90
51793;DHT22;37850;53.178;6.376;2024-01-07T07:49:21;-0.50;99.90
51793;DHT22;37850;53.178;6.376;2024-01-07T07:51:47;-0.60;99.90
51793;DHT22;37850;53.178;6.376;2024-01-07T07:54:12;-0.60;99.90
51793;DHT22;37850;53.178;6.376;2024-01-07T07:56:38;-0.60;99.90
51793;DHT22;37850;53.178;6.376;2024-01-07T07:59:04;-0.60;99.90
51793;DHT22;37850;53.178;6.376;2024-01-07T08:01:30;-0.70;99.90
51793;DHT22;37850;53.178;6.376;2024-01-07T08:03:55;-0.70;99.90
51793;DHT22;37850;53.178;6.376;2024-01-07T08:06:21;-0.70;99.90
51793;DHT22;37850;53.178;6.376;2024-01-07T08:08:47;-0.70;99.90
51793;DHT22;37850;53.178;6.376;2024-01-07T08:11:13;-0.50;99.90
51793;DHT22;37850;53.178;6.376;2024-01-07T08:13:39;-0.70;99.90
51793;DHT22;37850;53.178;6.376;2024-01-07T08:16:05;-0.50;99.90
51793;DHT22;37850;53.178;6.376;2024-01-07T08:18:31;-0.70;99.90
51793;DHT22;37850;53.178;6.376;2024-01-07T08:20:57;-0.70;99.90
51793;DHT22;37850;53.178;6.376;2024-01-07T08:23:24;0.00;99.90
51793;DHT22;37850;53.178;6.376;2024-01-07T08:25:53;-0.70;99.90
51793;DHT22;37850;53.178;6.376;2024-01-07T08:28:19;-1.70;99.90
51793;DHT22;37850;53.178;6.376;2024-01-07T08:30:46;-0.60;99.90
51793;DHT22;37850;53.178;6.376;2024-01-07T08:33:12;-0.60;99.90
51793;DHT22;37850;53.178;6.376;2024-01-07T08:35:38;-0.60;99.90
51793;DHT22;37850;53.178;6.376;2024-01-07T08:38:04;-0.60;99.90
51793;DHT22;37850;53.178;6.376;2024-01-07T08:40:30;-0.60;99.90
51793;DHT22;37850;53.178;6.376;2024-01-07T08:42:56;-0.60;99.90
51793;DHT22;37850;53.178;6.376;2024-01-07T08:45:22;-0.60;99.90
51793;DHT22;37850;53.178;6.376;2024-01-07T08:47:48;-0.50;99.90
51793;DHT22;37850;53.178;6.376;2024-01-07T08:50:13;-0.50;99.90
51793;DHT22;37850;53.178;6.376;2024-01-07T08:52:39;-0.50;99.90
51793;DHT22;37850;53.178;6.376;2024-01-07T08:55:05;0.30;99.90
51793;DHT22;37850;53.178;6.376;2024-01-07T08:57:33;-0.50;99.90
51793;DHT22;37850;53.178;6.376;2024-01-07T08:59:59;-0.50;99.90
51793;DHT22;37850;53.178;6.376;2024-01-07T09:02:24;-0.40;99.90
51793;DHT22;37850;53.178;6.376;2024-01-07T09:04:51;-0.40;99.90
51793;DHT22;37850;53.178;6.376;2024-01-07T09:07:17;-0.40;99.90
51793;DHT22;37850;53.178;6.376;2024-01-07T09:09:44;-0.30;99.90
51793;DHT22;37850;53.178;6.376;2024-01-07T09:12:10;-0.40;99.90
51793;DHT22;37850;53.178;6.376;2024-01-07T09:14:37;-0.30;99.90
51793;DHT22;37850;53.178;6.376;2024-01-07T09:17:03;-0.20;99.90
51793;DHT22;37850;53.178;6.376;2024-01-07T09:19:29;-0.40;99.90
51793;DHT22;37850;53.178;6.376;2024-01-07T09:21:55;-0.30;99.90
51793;DHT22;37850;53.178;6.376;2024-01-07T09:24:24;-0.30;99.90
51793;DHT22;37850;53.178;6.376;2024-01-07T09:26:49;-0.30;99.90
51793;DHT22;37850;53.178;6.376;2024-01-07T09:29:17;-0.30;99.90
51793;DHT22;37850;53.178;6.376;2024-01-07T09:31:42;-0.10;99.90
51793;DHT22;37850;53.178;6.376;2024-01-07T09:34:08;-0.30;99.90
51793;DHT22;37850;53.178;6.376;2024-01-07T09:36:34;-0.20;99.90
51793;DHT22;37850;53.178;6.376;2024-01-07T09:39:01;-0.20;99.90
51793;DHT22;37850;53.178;6.376;2024-01-07T09:41:27;-0.20;99.90
51793;DHT22;37850;53.178;6.376;2024-01-07T09:43:52;-0.20;99.90
51793;DHT22;37850;53.178;6.376;2024-01-07T09:46:19;-0.20;99.90
51793;DHT22;37850;53.178;6.376;2024-01-07T09:48:44;-0.10;99.90
51793;DHT22;37850;53.178;6.376;2024-01-07T09:51:11;-0.20;99.90
51793;DHT22;37850;53.178;6.376;2024-01-07T09:53:39;-0.10;99.90
51793;DHT22;37850;53.178;6.376;2024-01-07T09:56:19;-0.20;99.90
51793;DHT22;37850;53.178;6.376;2024-01-07T09:58:48;-0.10;99.90
51793;DHT22;37850;53.178;6.376;2024-01-07T10:01:19;-0.10;99.90
51793;DHT22;37850;53.178;6.376;2024-01-07T10:03:45;-0.10;99.90
51793;DHT22;37850;53.178;6.376;2024-01-07T10:06:11;-0.10;99.90
51793;DHT22;37850;53.178;6.376;2024-01-07T10:08:37;0.00;99.90
51793;DHT22;37850;53.178;6.376;2024-01-07T10:11:03;-0.10;99.90
51793;DHT22;37850;53.178;6.376;2024-01-07T10:13:31;-0.10;99.90
51793;DHT22;37850;53.178;6.376;2024-01-07T10:15:57;0.70;99.90
51793;DHT22;37850;53.178;6.376;2024-01-07T10:18:24;0.00;99.90
51793;DHT22;37850;53.178;6.376;2024-01-07T10:20:51;0.00;99.90
51793;DHT22;37850;53.178;6.376;2024-01-07T10:23:20;0.00;99.90
51793;DHT22;37850;53.178;6.376;2024-01-07T10:25:46;0.00;99.90
51793;DHT22;37850;53.178;6.376;2024-01-07T10:28:13;0.00;99.90
51793;DHT22;37850;53.178;6.376;2024-01-07T10:30:39;0.00;99.90
51793;DHT22;37850;53.178;6.376;2024-01-07T10:33:07;0.00;99.90
51793;DHT22;37850;53.178;6.376;2024-01-07T10:35:35;0.10;99.90
51793;DHT22;37850;53.178;6.376;2024-01-07T10:38:02;0.20;99.90
51793;DHT22;37850;53.178;6.376;2024-01-07T10:40:29;0.10;99.90
51793;DHT22;37850;53.178;6.376;2024-01-07T10:42:55;0.10;99.90
51793;DHT22;37850;53.178;6.376;2024-01-07T10:45:22;0.10;99.90
51793;DHT22;37850;53.178;6.376;2024-01-07T10:47:49;0.10;99.90
51793;DHT22;37850;53.178;6.376;2024-01-07T10:50:19;0.10;99.90
51793;DHT22;37850;53.178;6.376;2024-01-07T10:52:57;1.40;99.90
51793;DHT22;37850;53.178;6.376;2024-01-07T10:55:25;0.10;99.90
51793;DHT22;37850;53.178;6.376;2024-01-07T10:57:53;0.10;99.90
51793;DHT22;37850;53.178;6.376;2024-01-07T11:00:19;0.10;99.90
51793;DHT22;37850;53.178;6.376;2024-01-07T11:03:00;0.10;99.90
51793;DHT22;37850;53.178;6.376;2024-01-07T11:05:34;0.10;99.90
51793;DHT22;37850;53.178;6.376;2024-01-07T11:08:13;0.10;99.90
51793;DHT22;37850;53.178;6.376;2024-01-07T11:10:55;0.10;99.90
51793;DHT22;37850;53.178;6.376;2024-01-07T11:15:58;0.20;99.90
51793;DHT22;37850;53.178;6.376;2024-01-07T11:18:26;0.20;99.90
51793;DHT22;37850;53.178;6.376;2024-01-07T11:20:58;0.20;99.90
51793;DHT22;37850;53.178;6.376;2024-01-07T11:23:43;0.20;99.90
51793;DHT22;37850;53.178;6.376;2024-01-07T11:26:09;0.70;99.90
51793;DHT22;37850;53.178;6.376;2024-01-07T11:28:49;0.30;99.90
51793;DHT22;37850;53.178;6.376;2024-01-07T11:31:20;0.30;99.90
51793;DHT22;37850;53.178;6.376;2024-01-07T11:33:48;0.40;99.90
51793;DHT22;37850;53.178;6.376;2024-01-07T11:36:15;0.40;99.90
51793;DHT22;37850;53.178;6.376;2024-01-07T11:38:45;0.40;99.90
51793;DHT22;37850;53.178;6.376;2024-01-07T11:41:12;1.60;99.90
51793;DHT22;37850;53.178;6.376;2024-01-07T11:43:52;0.60;99.90
51793;DHT22;37850;53.178;6.376;2024-01-07T11:46:18;0.50;99.90
51793;DHT22;37850;53.178;6.376;2024-01-07T11:48:45;0.50;99.90
51793;DHT22;37850;53.178;6.376;2024-01-07T11:51:12;0.50;99.90
51793;DHT22;37850;53.178;6.376;2024-01-07T11:53:37;0.50;99.90
51793;DHT22;37850;53.178;6.376;2024-01-07T11:56:03;0.50;99.90
51793;DHT22;37850;53.178;6.376;2024-01-07T11:58:30;0.50;99.90
51793;DHT22;37850;53.178;6.376;2024-01-07T12:00:56;0.50;99.90
51793;DHT22;37850;53.178;6.376;2024-01-07T12:03:23;0.50;99.90
51793;DHT22;37850;53.178;6.376;2024-01-07T12:05:49;0.50;99.90
51793;DHT22;37850;53.178;6.376;2024-01-07T12:08:15;0.20;99.90
51793;DHT22;37850;53.178;6.376;2024-01-07T12:10:41;0.50;99.90
51793;DHT22;37850;53.178;6.376;2024-01-07T12:13:07;0.70;99.90
51793;DHT22;37850;53.178;6.376;2024-01-07T12:15:34;0.60;99.90
51793;DHT22;37850;53.178;6.376;2024-01-07T12:18:00;0.60;99.90
51793;DHT22;37850;53.178;6.376;2024-01-07T12:20:27;-0.50;99.90
51793;DHT22;37850;53.178;6.376;2024-01-07T12:23:13;0.60;99.90
51793;DHT22;37850;53.178;6.376;2024-01-07T12:25:39;0.60;99.90
51793;DHT22;37850;53.178;6.376;2024-01-07T12:28:08;0.60;99.90
51793;DHT22;37850;53.178;6.376;2024-01-07T12:30:34;0.60;99.90
51793;DHT22;37850;53.178;6.376;2024-01-07T12:33:00;0.80;99.90
51793;DHT22;37850;53.178;6.376;2024-01-07T12:35:29;1.00;99.90
51793;DHT22;37850;53.178;6.376;2024-01-07T12:37:55;0.50;99.90
51793;DHT22;37850;53.178;6.376;2024-01-07T12:40:21;0.50;99.90
51793;DHT22;37850;53.178;6.376;2024-01-07T12:42:49;0.50;99.90
51793;DHT22;37850;53.178;6.376;2024-01-07T12:45:15;0.50;99.90
51793;DHT22;37850;53.178;6.376;2024-01-07T12:47:42;0.50;99.90
51793;DHT22;37850;53.178;6.376;2024-01-07T12:50:08;0.60;99.90
51793;DHT22;37850;53.178;6.376;2024-01-07T12:52:39;0.50;99.90
51793;DHT22;37850;53.178;6.376;2024-01-07T12:55:05;0.50;99.90
51793;DHT22;37850;53.178;6.376;2024-01-07T12:57:32;0.50;99.90
51793;DHT22;37850;53.178;6.376;2024-01-07T12:59:58;0.50;99.90
51793;DHT22;37850;53.178;6.376;2024-01-07T13:02:23;0.50;99.90
51793;DHT22;37850;53.178;6.376;2024-01-07T13:04:53;0.40;99.90
51793;DHT22;37850;53.178;6.376;2024-01-07T13:07:18;0.50;99.90
51793;DHT22;37850;53.178;6.376;2024-01-07T13:09:44;0.70;99.90
51793;DHT22;37850;53.178;6.376;2024-01-07T13:12:10;0.40;99.90
51793;DHT22;37850;53.178;6.376;2024-01-07T13:14:36;0.40;99.90
51793;DHT22;37850;53.178;6.376;2024-01-07T13:17:02;0.40;99.90
51793;DHT22;37850;53.178;6.376;2024-01-07T13:19:28;0.40;99.90
51793;DHT22;37850;53.178;6.376;2024-01-07T13:21:55;0.40;99.90
51793;DHT22;37850;53.178;6.376;2024-01-07T13:24:23;0.30;99.90
51793;DHT22;37850;53.178;6.376;2024-01-07T13:26:49;0.30;99.90
51793;DHT22;37850;53.178;6.376;2024-01-07T13:29:15;0.30;99.90
51793;DHT22;37850;53.178;6.376;2024-01-07T13:31:40;0.20;99.90
51793;DHT22;37850;53.178;6.376;2024-01-07T13:34:06;0.20;99.90
51793;DHT22;37850;53.178;6.376;2024-01-07T13:36:32;0.20;99.90
51793;DHT22;37850;53.178;6.376;2024-01-07T13:38:58;0.20;99.90
51793;DHT22;37850;53.178;6.376;2024-01-07T13:41:23;0.40;99.90
51793;DHT22;37850;53.178;6.376;2024-01-07T13:43:49;0.20;99.90
51793;DHT22;37850;53.178;6.376;2024-01-07T13:46:15;0.20;99.90
51793;DHT22;37850;53.178;6.376;2024-01-07T13:48:41;0.40;99.90
51793;DHT22;37850;53.178;6.376;2024-01-07T13:51:09;1.60;99.90
51793;DHT22;37850;53.178;6.376;2024-01-07T13:53:35;0.40;99.90
51793;DHT22;37850;53.178;6.376;2024-01-07T13:56:00;0.40;99.90
51793;DHT22;37850;53.178;6.376;2024-01-07T13:58:26;0.30;99.90
51793;DHT22;37850;53.178;6.376;2024-01-07T14:00:52;0.30;99.90
51793;DHT22;37850;53.178;6.376;2024-01-07T14:03:18;0.30;99.90
51793;DHT22;37850;53.178;6.376;2024-01-07T14:05:45;1.30;99.90
51793;DHT22;37850;53.178;6.376;2024-01-07T14:08:11;0.30;99.90
51793;DHT22;37850;53.178;6.376;2024-01-07T14:10:36;-0.40;99.90
51793;DHT22;37850;53.178;6.376;2024-01-07T14:13:04;0.70;99.90
51793;DHT22;37850;53.178;6.376;2024-01-07T14:15:29;0.30;99.90
51793;DHT22;37850;53.178;6.376;2024-01-07T14:17:55;0.30;99.90
51793;DHT22;37850;53.178;6.376;2024-01-07T14:20:21;0.20;99.90
51793;DHT22;37850;53.178;6.376;2024-01-07T14:22:47;0.80;99.90
51793;DHT22;37850;53.178;6.376;2024-01-07T14:25:13;0.20;99.90
51793;DHT22;37850;53.178;6.376;2024-01-07T14:27:42;0.20;99.90
51793;DHT22;37850;53.178;6.376;2024-01-07T14:30:09;0.20;99.90
51793;DHT22;37850;53.178;6.376;2024-01-07T14:32:35;0.20;99.90
51793;DHT22;37850;53.178;6.376;2024-01-07T14:35:02;0.20;99.90
51793;DHT22;37850;53.178;6.376;2024-01-07T14:37:28;0.20;99.90
51793;DHT22;37850;53.178;6.376;2024-01-07T14:39:54;0.20;99.90
51793;DHT22;37850;53.178;6.376;2024-01-07T14:42:20;0.60;99.90
51793;DHT22;37850;53.178;6.376;2024-01-07T14:44:46;0.00;99.90
51793;DHT22;37850;53.178;6.376;2024-01-07T14:47:12;0.10;99.90
51793;DHT22;37850;53.178;6.376;2024-01-07T14:49:37;0.10;99.90
51793;DHT22;37850;53.178;6.376;2024-01-07T14:52:03;0.10;99.90
51793;DHT22;37850;53.178;6.376;2024-01-07T14:54:29;0.10;99.90
51793;DHT22;37850;53.178;6.376;2024-01-07T14:56:57;0.10;99.90
51793;DHT22;37850;53.178;6.376;2024-01-07T14:59:22;0.10;99.90
51793;DHT22;37850;53.178;6.376;2024-01-07T15:01:48;0.10;99.90
51793;DHT22;37850;53.178;6.376;2024-01-07T15:04:14;0.10;99.90
51793;DHT22;37850;53.178;6.376;2024-01-07T15:06:41;0.10;99.90
51793;DHT22;37850;53.178;6.376;2024-01-07T15:09:07;0.10;99.90
51793;DHT22;37850;53.178;6.376;2024-01-07T15:11:33;0.20;99.90
51793;DHT22;37850;53.178;6.376;2024-01-07T15:13:59;0.00;99.90
51793;DHT22;37850;53.178;6.376;2024-01-07T15:16:25;0.00;99.90
51793;DHT22;37850;53.178;6.376;2024-01-07T15:18:51;0.00;99.90
51793;DHT22;37850;53.178;6.376;2024-01-07T15:21:17;0.00;99.90
51793;DHT22;37850;53.178;6.376;2024-01-07T15:23:43;0.00;99.90
51793;DHT22;37850;53.178;6.376;2024-01-07T15:26:09;0.00;99.90
51793;DHT22;37850;53.178;6.376;2024-01-07T15:28:34;-0.10;99.90
51793;DHT22;37850;53.178;6.376;2024-01-07T15:31:00;0.00;99.90
51793;DHT22;37850;53.178;6.376;2024-01-07T15:33:26;-0.10;99.90
51793;DHT22;37850;53.178;6.376;2024-01-07T15:35:52;-0.10;99.90